Chicago (ORD/KORD)

Information

Location
Chicago-O'Hare, IL
Local Time
14:54 / 2:54 pm
GMT Time
19:54 / 7:54 pm
No FAA reported delays
METAR KORD 281924Z 08006KT 8SM -RA SCT028 BKN042 OVC065 13/08 A2989 RMK AO2 RAB05 P0000 T01330078
TAF KORD 281738Z 2818/2924 15007KT P6SM OVC090 FM281930 09009KT P6SM SCT045 OVC080 FM282100 09009KT P6SM -SHRA OVC035 FM290300 04010KT 6SM BR SCT010 OVC020 FM290900 04013G20KT 6SM BR SCT008 OVC015 FM291500 04018G27KT 6SM -SHRA OVC012 FM291900 04017G26KT 3SM -